Pagrindinis puslapis
METAR-TAF:

METAR-TAF

Oro uostai :

Kalgaris-Springbank, Alberta, Kanada

platuma: 51-06N, ilguma: 114-22W, Aukštis: 1200 m

Dabartinis oras

Ataskaita buvo paskelbta 14 minutes, ne 13:00 UTC
Vėjas 5 kt iš Vakarų/Šiaurės Vakarų
Temperatūra -16°C
Drėgmė 84%
Slėgis 1023 hPa
Matomumas: 14.5 km
Giedras dangus

METAR: CYBW 191300Z AUTO 30005KT 9SM CLR M16/M18 A3020 RMK SLP321

Laikas: 06:14 (13:14 UTC)

Prognozė

Ataskaita buvo paskelbta 36 minutes, ne 12:38 UTC
Prognozė galioja nuo 19 metu 13 UTC su 20 metu 01 UTC
Vėjas 6 kt iš Šiaurės Vakarų
Matomumas: 10 km
Giedras dangus

TAF: CYBW 191238Z 1913/2001 31006KT P6SM SKC RMK FCST BASED ON AUTO OBS. NXT FCST BY 191800Z

Orai ataskaitas ir orų prognozės (METAR, TAF).

turimą stotys yra geltonos ir raudonos taškus žemėlapyje.

Perkelti pele per norėdami pamatyti stoties vardą.

Tada spustelėkite, norėdami matyti oro stebėjimo ir prognozės.

Norėdami pakeisti žemėlapį: spustelėkite ant žalios mygtukų su juodo kryžiaus žemyn,; žalią mygtuką su brūkšneliu, jei norite nutolinti; arba žalių rodyklių gretimoms žemėlapius.


METAR-TAF: